Time;durP1;ratioP1;P1;durP2;ratioP2;P2;SDS_P1;SDS_P2;PMS_P1;PMS_P2;Temp;Humidity;BMP_temperature;BMP_pressure;BME280_temperature;BME280_humidity;BME280_pressure;Samples;Min_cycle;Max_cycle;Signal;HPM_P1;HPM_P2
2021/01/14 00:00:39;;;;;;;3.13;1.00;;;5.10;78.60;;;;;;4991942;28;20030;-84
2021/01/14 00:03:07;;;;;;;2.53;1.00;;;5.10;78.60;;;;;;4990135;28;20033;-84
2021/01/14 00:05:33;;;;;;;2.50;0.90;;;5.00;78.60;;;;;;4987064;28;20077;-84
2021/01/14 00:07:58;;;;;;;2.92;0.90;;;5.00;78.50;;;;;;4987410;28;20433;-83
2021/01/14 00:10:24;;;;;;;2.08;0.80;;;5.00;78.60;;;;;;4988655;28;20145;-84
2021/01/14 00:12:50;;;;;;;3.00;0.70;;;5.00;78.60;;;;;;4987518;28;20023;-83
2021/01/14 00:15:16;;;;;;;3.75;0.85;;;5.00;78.60;;;;;;4987959;28;20405;-84
2021/01/14 00:17:44;;;;;;;4.72;1.00;;;5.00;78.50;;;;;;4968294;28;20039;-83
2021/01/14 00:20:13;;;;;;;3.22;0.85;;;4.90;78.40;;;;;;4987766;28;20022;-83
2021/01/14 00:22:39;;;;;;;2.72;0.63;;;5.00;78.40;;;;;;4987329;28;20045;-83
2021/01/14 00:25:06;;;;;;;2.55;0.80;;;4.90;78.30;;;;;;4971104;28;20022;-83
2021/01/14 00:27:32;;;;;;;3.83;0.80;;;5.00;78.30;;;;;;4991628;28;20034;-84
2021/01/14 00:29:58;;;;;;;2.50;0.90;;;5.00;78.30;;;;;;4976527;28;20033;-85
2021/01/14 00:32:24;;;;;;;1.35;0.73;;;5.00;78.30;;;;;;4999268;28;20044;-87
2021/01/14 00:34:50;;;;;;;2.28;0.75;;;5.00;78.30;;;;;;5002634;28;20038;-84
2021/01/14 00:40:00;;;;;;;3.00;1.00;;;5.00;78.20;;;;;;4994051;28;20092;-85
2021/01/14 00:42:26;;;;;;;2.25;0.80;;;5.00;78.10;;;;;;4975102;28;20030;-85
2021/01/14 00:44:51;;;;;;;2.75;0.98;;;5.00;78.10;;;;;;4984553;28;20117;-85
2021/01/14 00:47:17;;;;;;;1.55;0.90;;;4.90;77.90;;;;;;4991206;28;20045;-86
2021/01/14 00:49:43;;;;;;;2.90;1.08;;;4.90;77.80;;;;;;4988607;28;20579;-84
2021/01/14 00:52:11;;;;;;;3.85;1.10;;;4.90;77.80;;;;;;4989493;28;20034;-87
2021/01/14 00:54:39;;;;;;;1.45;0.80;;;4.90;77.70;;;;;;4990918;28;20038;-84
2021/01/14 00:57:09;;;;;;;1.67;0.77;;;4.90;77.70;;;;;;4991484;28;20132;-84
2021/01/14 00:59:38;;;;;;;1.90;0.80;;;4.90;77.70;;;;;;4990981;28;20023;-85
2021/01/14 01:02:04;;;;;;;2.22;0.80;;;4.90;77.60;;;;;;4990311;28;20030;-84
2021/01/14 01:04:30;;;;;;;3.55;0.90;;;4.90;77.70;;;;;;4985348;28;20022;-85
2021/01/14 01:06:56;;;;;;;3.15;0.95;;;4.90;77.70;;;;;;4991945;28;20431;-85
2021/01/14 01:09:23;;;;;;;2.45;0.80;;;4.90;77.50;;;;;;4974595;28;20030;-85
2021/01/14 01:11:49;;;;;;;2.00;1.00;;;4.80;77.50;;;;;;4989902;28;20043;-85
2021/01/14 01:14:15;;;;;;;2.70;0.90;;;4.80;77.50;;;;;;4990633;28;20054;-85
2021/01/14 01:16:40;;;;;;;2.65;0.80;;;4.70;77.40;;;;;;4993213;28;20503;-86
2021/01/14 01:19:06;;;;;;;2.33;0.80;;;4.70;77.40;;;;;;4987579;28;20103;-86
2021/01/14 01:21:32;;;;;;;1.17;0.80;;;4.70;77.50;;;;;;4989674;28;20053;-85
2021/01/14 01:23:57;;;;;;;1.88;0.80;;;4.70;77.40;;;;;;4988029;28;20034;-86
2021/01/14 01:26:23;;;;;;;3.58;0.80;;;4.70;77.50;;;;;;4989558;28;20026;-85
2021/01/14 01:28:48;;;;;;;2.45;0.80;;;4.70;77.60;;;;;;4992202;28;20085;-84
2021/01/14 01:31:14;;;;;;;3.97;0.93;;;4.60;77.50;;;;;;4972014;28;20035;-85
2021/01/14 01:33:41;;;;;;;1.98;0.80;;;4.60;77.40;;;;;;4989264;28;20113;-86
2021/01/14 01:36:10;;;;;;;2.15;0.85;;;4.60;77.50;;;;;;4992763;28;20037;-85
2021/01/14 01:38:36;;;;;;;1.65;0.80;;;4.60;77.50;;;;;;5002203;28;20394;-85
2021/01/14 01:41:02;;;;;;;3.70;0.90;;;4.50;77.50;;;;;;4989057;28;20109;-84
2021/01/14 01:43:29;;;;;;;2.65;0.90;;;4.50;77.50;;;;;;4992414;28;20069;-85
2021/01/14 01:45:55;;;;;;;1.77;0.70;;;4.50;77.60;;;;;;4997641;28;20034;-85
2021/01/14 01:48:21;;;;;;;2.22;1.05;;;4.50;77.60;;;;;;5003249;28;20384;-85
2021/01/14 01:50:49;;;;;;;1.85;0.80;;;4.50;78.10;;;;;;4990837;28;20018;-86
2021/01/14 01:53:15;;;;;;;1.42;0.77;;;4.50;77.50;;;;;;4989609;28;20028;-86
2021/01/14 01:55:43;;;;;;;3.67;0.63;;;4.50;77.50;;;;;;4987770;28;20079;-86
2021/01/14 01:58:10;;;;;;;2.25;0.85;;;4.50;77.50;;;;;;4990149;28;20235;-86
2021/01/14 02:00:36;;;;;;;1.08;0.65;;;4.50;77.50;;;;;;4988290;28;20030;-85
2021/01/14 02:03:01;;;;;;;2.70;0.80;;;4.50;77.50;;;;;;4986888;28;20065;-85
2021/01/14 02:05:27;;;;;;;4.25;1.00;;;4.50;77.40;;;;;;4992002;28;20366;-86
2021/01/14 02:08:13;;;;;;;2.15;0.70;;;4.50;77.20;;;;;;4996552;28;20038;-85
2021/01/14 02:10:46;;;;;;;2.35;1.10;;;4.50;77.20;;;;;;5009668;28;20094;-85
2021/01/14 02:13:29;;;;;;;3.83;1.05;;;4.40;77.10;;;;;;4990228;28;20157;-84
2021/01/14 02:15:59;;;;;;;1.65;0.95;;;4.40;76.80;;;;;;4990769;28;20096;-85
2021/01/14 02:18:25;;;;;;;3.20;1.08;;;4.30;76.70;;;;;;4973930;28;20034;-83
2021/01/14 02:20:55;;;;;;;1.17;0.73;;;4.30;76.80;;;;;;4987155;28;20022;-84
2021/01/14 02:23:45;;;;;;;2.40;1.00;;;4.40;76.80;;;;;;4987826;28;20137;-84
2021/01/14 02:26:27;;;;;;;2.80;0.73;;;4.30;76.60;;;;;;4986886;28;20153;-85
2021/01/14 02:28:54;;;;;;;2.05;0.98;;;4.30;76.60;;;;;;4957165;28;20149;-85
2021/01/14 02:31:21;;;;;;;3.20;0.80;;;4.30;76.80;;;;;;4988362;28;21268;-85
2021/01/14 02:33:48;;;;;;;2.72;0.90;;;4.30;76.80;;;;;;4991472;28;20085;-85
2021/01/14 02:36:14;;;;;;;2.40;0.80;;;4.30;76.70;;;;;;4978498;28;20384;-85
2021/01/14 02:38:40;;;;;;;3.33;1.00;;;4.40;76.80;;;;;;4973644;28;20034;-85
2021/01/14 02:41:05;;;;;;;3.47;0.90;;;4.30;76.70;;;;;;4990196;28;20043;-85
2021/01/14 02:43:31;;;;;;;1.27;0.80;;;4.40;76.60;;;;;;4996714;28;20158;-85
2021/01/14 02:45:57;;;;;;;3.40;0.93;;;4.30;76.60;;;;;;5006741;28;20026;-84
2021/01/14 02:48:29;;;;;;;2.20;0.80;;;4.30;76.60;;;;;;4989219;28;20042;-85
2021/01/14 02:50:59;;;;;;;1.80;0.80;;;4.30;76.50;;;;;;4988236;28;20567;-85
2021/01/14 02:53:26;;;;;;;1.85;0.85;;;4.30;76.50;;;;;;4986312;28;20026;-85
2021/01/14 02:55:52;;;;;;;6.45;0.90;;;4.30;76.50;;;;;;4973178;28;20022;-85
2021/01/14 02:58:18;;;;;;;2.00;0.85;;;4.30;76.50;;;;;;4988511;28;20030;-85
2021/01/14 03:00:44;;;;;;;2.25;0.80;;;4.30;76.50;;;;;;4987721;28;20503;-85
2021/01/14 03:03:09;;;;;;;3.17;0.82;;;4.30;76.40;;;;;;4988210;28;20022;-85
2021/01/14 03:05:35;;;;;;;2.10;0.93;;;4.20;76.30;;;;;;4986948;28;20105;-85
2021/01/14 03:08:01;;;;;;;2.90;0.90;;;4.20;76.40;;;;;;4989576;28;20398;-84
2021/01/14 03:10:26;;;;;;;1.80;0.80;;;4.20;76.40;;;;;;4988628;28;20023;-86
2021/01/14 03:12:52;;;;;;;2.05;0.80;;;4.10;76.30;;;;;;4985509;28;20038;-86
2021/01/14 03:15:18;;;;;;;1.92;0.70;;;4.10;76.40;;;;;;4990865;28;20027;-86
2021/01/14 03:17:43;;;;;;;2.65;1.00;;;4.10;76.30;;;;;;4988940;28;20130;-86
2021/01/14 03:20:09;;;;;;;3.08;1.05;;;4.10;76.30;;;;;;4989178;28;20037;-87
2021/01/14 03:22:39;;;;;;;4.35;0.90;;;4.10;76.40;;;;;;4987513;28;20033;-86
2021/01/14 03:25:10;;;;;;;1.45;0.80;;;4.10;76.20;;;;;;4972704;28;20432;-85
2021/01/14 03:27:39;;;;;;;2.70;0.80;;;4.10;76.20;;;;;;4987967;28;20568;-86
2021/01/14 03:30:08;;;;;;;5.40;0.90;;;4.10;76.20;;;;;;4986538;28;20053;-86
2021/01/14 03:32:33;;;;;;;2.50;0.80;;;4.10;76.20;;;;;;4985108;28;20045;-86
2021/01/14 03:34:59;;;;;;;1.05;0.73;;;4.00;76.20;;;;;;4970609;28;20019;-86
2021/01/14 03:37:24;;;;;;;1.95;0.70;;;4.00;76.30;;;;;;4967290;28;20795;-85
2021/01/14 03:39:50;;;;;;;2.90;0.82;;;4.00;76.30;;;;;;4988208;28;20029;-85
2021/01/14 03:42:20;;;;;;;3.30;1.02;;;4.00;76.30;;;;;;4990339;28;20098;-85
2021/01/14 03:44:48;;;;;;;6.47;1.00;;;3.90;76.20;;;;;;4977051;28;20145;-84
2021/01/14 03:47:14;;;;;;;1.83;0.70;;;3.90;76.30;;;;;;4990999;28;20027;-84
2021/01/14 03:49:40;;;;;;;3.75;0.93;;;3.90;76.30;;;;;;4992779;28;20022;-84
2021/01/14 03:52:08;;;;;;;4.10;0.85;;;3.80;76.30;;;;;;4966658;28;20107;-84
2021/01/14 03:54:33;;;;;;;1.90;0.68;;;3.90;76.30;;;;;;4988502;28;20113;-84
2021/01/14 03:56:59;;;;;;;1.67;0.70;;;3.90;76.30;;;;;;4990097;28;20030;-85
2021/01/14 03:59:24;;;;;;;1.80;0.70;;;3.90;76.30;;;;;;4994719;28;20027;-84
2021/01/14 04:01:51;;;;;;;1.10;0.80;;;3.90;76.20;;;;;;4997141;28;20034;-84
2021/01/14 04:04:18;;;;;;;1.88;0.63;;;3.90;76.20;;;;;;5001587;28;20026;-85
2021/01/14 04:06:43;;;;;;;1.35;0.65;;;3.90;76.20;;;;;;5000312;28;20022;-84
2021/01/14 04:09:09;;;;;;;1.67;0.70;;;3.90;76.20;;;;;;5019457;28;19999;-84
2021/01/14 04:11:35;;;;;;;4.03;1.00;;;3.90;76.20;;;;;;5001625;28;20093;-84
2021/01/14 04:14:00;;;;;;;2.65;0.85;;;3.90;76.10;;;;;;5016952;28;20022;-85
2021/01/14 04:16:26;;;;;;;2.03;0.80;;;3.90;76.10;;;;;;4982523;28;20034;-85
2021/01/14 04:18:52;;;;;;;3.15;0.88;;;3.90;76.00;;;;;;5010481;28;20034;-84
2021/01/14 04:21:18;;;;;;;4.43;1.25;;;3.90;76.00;;;;;;5017224;28;20010;-85
2021/01/14 04:23:44;;;;;;;3.60;0.70;;;3.90;76.00;;;;;;5015220;28;20120;-85
2021/01/14 04:26:11;;;;;;;2.35;0.80;;;3.90;75.90;;;;;;4978753;28;20022;-84
2021/01/14 04:28:37;;;;;;;2.65;0.82;;;3.80;75.90;;;;;;4988151;28;20053;-84
2021/01/14 04:31:03;;;;;;;2.15;0.70;;;3.80;76.00;;;;;;5016714;28;20038;-84
2021/01/14 04:33:29;;;;;;;1.60;0.90;;;3.80;76.00;;;;;;5017400;28;20022;-84
2021/01/14 04:35:57;;;;;;;2.47;0.88;;;3.80;76.00;;;;;;5017805;28;20236;-84
2021/01/14 04:38:24;;;;;;;1.73;0.77;;;3.70;76.10;;;;;;5014054;28;20054;-85
2021/01/14 04:41:00;;;;;;;1.50;0.80;;;3.70;76.20;;;;;;5000035;28;20465;-85
2021/01/14 04:43:28;;;;;;;2.63;0.80;;;3.70;76.20;;;;;;5003242;28;20042;-85
2021/01/14 04:46:02;;;;;;;1.52;0.70;;;3.70;76.30;;;;;;5001681;28;20120;-85
2021/01/14 04:48:28;;;;;;;2.60;0.77;;;3.60;76.30;;;;;;4976766;28;20057;-84
2021/01/14 04:50:54;;;;;;;1.52;0.70;;;3.60;76.30;;;;;;4995579;28;20099;-84
2021/01/14 04:53:20;;;;;;;2.05;0.85;;;3.60;76.90;;;;;;4994068;28;20073;-84
2021/01/14 04:55:48;;;;;;;2.17;0.70;;;3.60;76.30;;;;;;4995502;28;20022;-86
2021/01/14 04:58:16;;;;;;;1.30;0.60;;;3.60;76.40;;;;;;4977288;28;20121;-84
2021/01/14 05:00:50;;;;;;;2.38;0.90;;;3.60;76.40;;;;;;4978789;28;20026;-85
2021/01/14 05:03:24;;;;;;;2.03;0.70;;;3.60;76.30;;;;;;4995343;28;20030;-84
2021/01/14 05:05:51;;;;;;;2.15;1.08;;;3.60;76.40;;;;;;4995931;28;20023;-84
2021/01/14 05:08:24;;;;;;;1.45;0.75;;;3.50;76.30;;;;;;4994876;28;20046;-84
2021/01/14 05:10:53;;;;;;;1.77;0.82;;;3.50;76.30;;;;;;4995532;28;20018;-83
2021/01/14 05:13:18;;;;;;;2.80;0.80;;;3.60;76.40;;;;;;4999762;28;20389;-84
2021/01/14 05:15:45;;;;;;;1.48;0.77;;;3.60;76.30;;;;;;4998852;28;20068;-85
2021/01/14 05:18:10;;;;;;;1.23;0.70;;;3.60;76.30;;;;;;4993978;28;20039;-84
2021/01/14 05:20:36;;;;;;;2.38;0.63;;;3.60;76.20;;;;;;4992780;28;20463;-85
2021/01/14 05:23:04;;;;;;;1.33;0.80;;;3.60;76.20;;;;;;4991698;28;20565;-85
2021/01/14 05:25:31;;;;;;;1.90;0.60;;;3.60;76.30;;;;;;4996506;28;20026;-85
2021/01/14 05:28:13;;;;;;;1.17;0.70;;;3.60;76.30;;;;;;4992366;28;20045;-85
2021/01/14 05:30:40;;;;;;;1.05;0.70;;;3.60;76.10;;;;;;4992664;28;20373;-84
2021/01/14 05:33:20;;;;;;;2.05;0.80;;;3.50;76.10;;;;;;4993326;28;20480;-84
2021/01/14 05:35:51;;;;;;;2.92;0.90;;;3.60;76.20;;;;;;4973946;28;20031;-85
2021/01/14 05:38:32;;;;;;;2.25;0.68;;;3.50;76.20;;;;;;4989959;28;20387;-83
2021/01/14 05:41:18;;;;;;;2.97;0.80;;;3.60;76.20;;;;;;4990783;28;20042;-82
2021/01/14 05:44:00;;;;;;;2.03;0.70;;;3.60;76.20;;;;;;4992968;28;20097;-84
2021/01/14 05:46:27;;;;;;;0.88;0.70;;;3.60;76.30;;;;;;4991870;28;20027;-83
2021/01/14 05:48:58;;;;;;;1.30;0.80;;;3.60;76.20;;;;;;4989630;28;20515;-84
2021/01/14 05:51:30;;;;;;;2.15;0.70;;;3.60;76.20;;;;;;4989561;28;20046;-84
2021/01/14 05:54:13;;;;;;;2.45;0.75;;;3.60;76.20;;;;;;4990369;28;20523;-85
2021/01/14 05:56:49;;;;;;;1.05;0.65;;;3.60;76.20;;;;;;4992191;28;20519;-84
2021/01/14 05:59:17;;;;;;;2.00;0.80;;;3.60;76.30;;;;;;4989063;28;20528;-85
2021/01/14 06:01:59;;;;;;;3.83;1.00;;;3.50;76.20;;;;;;4991846;28;20093;-84
2021/01/14 06:04:29;;;;;;;2.30;0.70;;;3.50;76.20;;;;;;4973458;28;20050;-84
2021/01/14 06:07:02;;;;;;;2.38;0.77;;;3.50;76.20;;;;;;4982113;28;20526;-84
2021/01/14 06:09:28;;;;;;;1.75;0.60;;;3.50;76.30;;;;;;4986256;28;20030;-84
2021/01/14 06:12:11;;;;;;;2.65;0.80;;;3.50;76.20;;;;;;4974050;28;20078;-83
2021/01/14 06:14:37;;;;;;;4.88;0.90;;;3.50;76.20;;;;;;4992427;28;20487;-84
2021/01/14 06:17:10;;;;;;;2.33;0.80;;;3.50;76.20;;;;;;4991786;28;20038;-84
2021/01/14 06:19:36;;;;;;;2.25;0.70;;;3.50;76.30;;;;;;4991373;28;20026;-85
2021/01/14 06:22:03;;;;;;;1.25;0.75;;;3.50;76.20;;;;;;4982383;28;20049;-85
2021/01/14 06:24:35;;;;;;;2.95;0.90;;;3.50;76.30;;;;;;4989753;28;20484;-84
2021/01/14 06:27:04;;;;;;;2.30;0.90;;;3.50;76.40;;;;;;4988837;28;20037;-84
2021/01/14 06:29:30;;;;;;;1.48;0.57;;;3.50;76.30;;;;;;4987802;28;20029;-84
2021/01/14 06:32:05;;;;;;;1.42;0.80;;;3.50;76.20;;;;;;4988906;28;20435;-84
2021/01/14 06:34:32;;;;;;;1.80;0.70;;;3.50;76.30;;;;;;4988309;28;20065;-84
2021/01/14 06:37:15;;;;;;;1.58;0.80;;;3.50;76.30;;;;;;4995154;28;20085;-85
2021/01/14 06:39:51;;;;;;;1.83;0.70;;;3.50;76.30;;;;;;4983271;28;20062;-84
2021/01/14 06:42:22;;;;;;;0.80;0.63;;;3.50;76.40;;;;;;4971863;28;20034;-85
2021/01/14 06:44:51;;;;;;;2.13;0.70;;;3.50;76.50;;;;;;4991084;28;20381;-85
2021/01/14 06:47:41;;;;;;;1.67;0.90;;;3.50;76.50;;;;;;4988893;28;20026;-84
2021/01/14 06:50:35;;;;;;;1.75;0.73;;;3.50;76.30;;;;;;4995549;28;20464;-85
2021/01/14 06:53:12;;;;;;;3.63;0.98;;;3.40;76.30;;;;;;4994534;28;20033;-86
2021/01/14 06:55:38;;;;;;;2.53;0.80;;;3.40;76.50;;;;;;5002349;28;20119;-86
2021/01/14 06:58:19;;;;;;;1.83;0.70;;;3.40;76.50;;;;;;5003945;28;20042;-85
2021/01/14 07:00:48;;;;;;;3.30;0.77;;;3.40;76.50;;;;;;4994461;28;20022;-84
2021/01/14 07:03:22;;;;;;;2.55;0.93;;;3.40;76.50;;;;;;4984164;28;20045;-85
2021/01/14 07:05:54;;;;;;;;;;;3.30;76.50;;;;;;4970573;28;20037;-87
2021/01/14 07:08:31;;;;;;;2.20;0.80;;;3.30;76.40;;;;;;4976415;28;20063;-87
2021/01/14 07:11:05;;;;;;;1.33;0.90;;;3.30;76.50;;;;;;4996671;28;20039;-87
2021/01/14 07:13:38;;;;;;;1.75;0.85;;;3.30;76.50;;;;;;4996717;28;20026;-87
2021/01/14 07:16:15;;;;;;;2.35;0.88;;;3.40;76.60;;;;;;4997594;28;20100;-87
2021/01/14 07:18:46;;;;;;;1.75;0.80;;;3.40;76.50;;;;;;4990684;28;20097;-86
2021/01/14 07:21:41;;;;;;;1.55;0.80;;;3.40;76.50;;;;;;4994163;28;20183;-87
2021/01/14 07:24:19;;;;;;;2.53;0.90;;;3.40;76.40;;;;;;4995265;28;20022;-87
2021/01/14 07:26:54;;;;;;;2.35;0.80;;;3.40;76.40;;;;;;4997840;28;20026;-88
2021/01/14 07:29:27;;;;;;;1.77;0.85;;;3.40;76.50;;;;;;4990585;28;20057;-87
2021/01/14 07:31:56;;;;;;;1.27;0.65;;;3.40;76.50;;;;;;4974099;28;20041;-87
2021/01/14 07:34:33;;;;;;;2.80;0.90;;;3.40;76.50;;;;;;4989394;28;20026;-87
2021/01/14 07:36:59;;;;;;;1.58;1.00;;;3.40;76.50;;;;;;4989120;28;20060;-86
2021/01/14 07:39:56;;;;;;;2.53;0.70;;;3.40;76.50;;;;;;4999646;28;20049;-86
2021/01/14 07:42:24;;;;;;;2.13;0.80;;;3.30;76.50;;;;;;4990419;28;20415;-87
2021/01/14 07:45:00;;;;;;;3.15;0.80;;;3.40;76.60;;;;;;4994328;28;20110;-86
2021/01/14 07:47:34;;;;;;;1.92;0.73;;;3.40;76.60;;;;;;4995762;28;20022;-88
2021/01/14 07:50:23;;;;;;;4.15;1.10;;;3.30;76.50;;;;;;4995260;28;20022;-88
2021/01/14 07:52:52;;;;;;;2.00;1.00;;;3.40;76.60;;;;;;4976874;28;20073;-90
2021/01/14 07:55:32;;;;;;;2.63;1.00;;;3.40;76.60;;;;;;4974407;28;20038;-89
2021/01/14 08:00:59;;;;;;;3.20;1.15;;;3.30;76.70;;;;;;5001036;28;20121;-90
2021/01/14 08:03:31;;;;;;;2.60;0.82;;;3.30;76.70;;;;;;4992114;28;20033;-90
2021/01/14 08:05:58;;;;;;;2.40;0.82;;;3.30;76.70;;;;;;4990828;28;20034;-90
2021/01/14 08:08:35;;;;;;;1.15;0.88;;;3.20;76.60;;;;;;4997602;28;20539;-88
2021/01/14 08:11:21;;;;;;;2.60;0.77;;;3.30;76.80;;;;;;5007164;28;20052;-88
2021/01/14 08:14:12;;;;;;;3.25;0.93;;;3.30;76.80;;;;;;4973371;28;20129;-93
2021/01/14 08:16:56;;;;;;;1.63;1.00;;;3.30;76.70;;;;;;4960317;28;20035;-92
2021/01/14 08:19:33;;;;;;;1.38;0.80;;;3.30;76.70;;;;;;4992320;28;20046;-92
2021/01/14 08:21:58;;;;;;;2.55;0.93;;;3.30;76.80;;;;;;4995496;28;20014;-89
2021/01/14 08:24:45;;;;;;;2.00;0.82;;;3.30;76.80;;;;;;4993417;28;20436;-94
2021/01/14 08:27:21;;;;;;;2.08;0.98;;;3.30;76.70;;;;;;4998988;28;20070;-87
2021/01/14 08:29:50;;;;;;;2.10;0.70;;;3.40;76.80;;;;;;5005152;28;20038;-89
2021/01/14 08:32:35;;;;;;;1.20;0.65;;;3.40;76.70;;;;;;5005749;28;20457;-88
2021/01/14 08:35:16;;;;;;;3.78;1.40;;;3.40;76.60;;;;;;4998831;28;20026;-91
2021/01/14 08:38:03;;;;;;;2.55;1.00;;;3.40;76.40;;;;;;5014805;28;20022;-87
2021/01/14 08:40:31;;;;;;;5.65;1.70;;;3.30;76.40;;;;;;4976840;28;20072;-86
2021/01/14 08:43:02;;;;;;;1.92;1.00;;;3.30;76.30;;;;;;5030315;28;20030;-87
2021/01/14 08:45:55;;;;;;;1.63;0.93;;;3.30;76.50;;;;;;5023756;28;20046;-92
2021/01/14 08:48:31;;;;;;;2.78;1.17;;;3.30;76.50;;;;;;5002646;28;20046;-89
2021/01/14 08:51:03;;;;;;;4.20;1.35;;;3.30;76.40;;;;;;5002136;28;20042;-88
2021/01/14 08:53:39;;;;;;;5.35;1.30;;;3.20;75.90;;;;;;5001649;28;20026;-92
2021/01/14 08:56:09;;;;;;;4.20;1.33;;;3.10;76.00;;;;;;5015556;28;20165;-89
2021/01/14 08:58:34;;;;;;;4.55;1.50;;;3.20;75.80;;;;;;4975876;28;20070;-91
2021/01/14 09:01:00;;;;;;;3.85;1.33;;;3.00;75.40;;;;;;4993295;28;20026;-91
2021/01/14 09:03:26;;;;;;;2.83;1.23;;;3.00;75.70;;;;;;4998437;28;20017;-90
2021/01/14 09:05:52;;;;;;;3.25;1.48;;;3.00;75.60;;;;;;4997336;28;20022;-90
2021/01/14 09:08:19;;;;;;;5.68;1.35;;;3.00;75.40;;;;;;4995814;28;20681;-88
2021/01/14 09:10:56;;;;;;;3.05;1.40;;;3.00;75.00;;;;;;4997053;28;20494;-89
2021/01/14 09:13:27;;;;;;;3.30;1.15;;;2.90;75.30;;;;;;4985530;28;20097;-88
2021/01/14 09:15:54;;;;;;;3.08;1.20;;;3.10;75.50;;;;;;4992819;28;20584;-90
2021/01/14 09:18:37;;;;;;;4.07;2.20;;;3.00;75.50;;;;;;4997260;28;20030;-91
2021/01/14 09:21:03;;;;;;;5.00;2.13;;;3.00;75.20;;;;;;4979797;28;20026;-87
2021/01/14 09:23:34;;;;;;;4.60;1.60;;;3.10;75.10;;;;;;4999014;28;20434;-90
2021/01/14 09:26:50;;;;;;;6.13;2.00;;;3.10;74.80;;;;;;5007894;28;20018;-88
2021/01/14 09:29:19;;;;;;;3.53;1.65;;;3.00;74.30;;;;;;4959315;28;20145;-87
2021/01/14 09:31:47;;;;;;;5.63;1.70;;;2.90;74.50;;;;;;4985160;28;20030;-88
2021/01/14 09:34:12;;;;;;;6.88;1.88;;;3.00;74.60;;;;;;4995074;28;20053;-92
2021/01/14 09:36:42;;;;;;;3.05;1.42;;;3.00;74.60;;;;;;4996977;28;20051;-92
2021/01/14 09:39:14;;;;;;;3.72;1.63;;;3.10;74.70;;;;;;4994625;28;20103;-85
2021/01/14 09:41:40;;;;;;;4.53;1.63;;;3.20;74.60;;;;;;4993060;28;20532;-90
2021/01/14 09:44:14;;;;;;;6.95;2.08;;;3.10;74.00;;;;;;4993116;28;20092;-87
2021/01/14 09:46:42;;;;;;;5.88;1.83;;;3.10;73.90;;;;;;4995050;28;20477;-91
2021/01/14 09:49:12;;;;;;;5.38;1.70;;;3.10;73.80;;;;;;4996019;28;20086;-88
2021/01/14 09:51:45;;;;;;;4.85;1.80;;;3.10;73.90;;;;;;4995376;28;20073;-91
2021/01/14 09:54:12;;;;;;;5.72;1.80;;;3.10;73.90;;;;;;4998437;28;20035;-89
2021/01/14 09:57:18;;;;;;;4.03;1.58;;;3.10;73.90;;;;;;5001167;28;20022;-93
2021/01/14 09:59:49;;;;;;;6.10;2.08;;;3.10;73.90;;;;;;5009045;28;20049;-90
2021/01/14 10:02:24;;;;;;;7.32;2.35;;;3.20;73.60;;;;;;5013646;28;20010;-89
2021/01/14 10:04:54;;;;;;;6.20;2.50;;;3.10;73.30;;;;;;4994700;28;20125;-94
2021/01/14 10:07:24;;;;;;;3.75;1.90;;;3.10;73.30;;;;;;4997901;28;20048;-91
2021/01/14 10:09:53;;;;;;;6.18;2.50;;;3.00;73.50;;;;;;4977807;28;20109;-92
2021/01/14 10:12:19;;;;;;;6.00;2.28;;;3.10;73.70;;;;;;4993411;28;20030;-95
2021/01/14 10:14:44;;;;;;;5.10;1.83;;;3.10;73.20;;;;;;4980963;28;20372;-93
2021/01/14 10:17:12;;;;;;;6.97;2.63;;;3.00;73.50;;;;;;4985778;28;20046;-92
2021/01/14 10:19:52;;;;;;;5.55;2.00;;;3.10;73.60;;;;;;4976401;28;20123;-94
2021/01/14 10:22:18;;;;;;;3.97;2.00;;;3.10;73.70;;;;;;4971276;28;20049;-91
2021/01/14 10:24:45;;;;;;;4.70;2.30;;;3.10;73.60;;;;;;4995094;28;20029;-92
2021/01/14 10:27:15;;;;;;;7.05;2.08;;;3.10;73.20;;;;;;5004967;28;20507;-94
2021/01/14 10:29:42;;;;;;;6.20;2.20;;;3.00;73.40;;;;;;5000941;28;20034;-91
2021/01/14 10:32:10;;;;;;;7.63;2.78;;;3.00;73.50;;;;;;4980129;28;20048;-92
2021/01/14 10:34:44;;;;;;;6.47;2.50;;;3.00;73.50;;;;;;4999182;28;20022;-91
2021/01/14 10:37:27;;;;;;;7.68;2.25;;;2.90;73.50;;;;;;4989325;28;20045;-91
2021/01/14 10:40:02;;;;;;;5.95;2.40;;;3.00;73.80;;;;;;4984639;28;20030;-95
2021/01/14 10:42:37;;;;;;;5.88;2.30;;;3.00;73.90;;;;;;5001122;28;20026;-92
2021/01/14 10:45:11;;;;;;;4.00;1.75;;;3.00;73.90;;;;;;5000992;28;20094;-92
2021/01/14 10:47:39;;;;;;;5.68;2.10;;;3.10;74.00;;;;;;5002773;28;20028;-92
2021/01/14 10:50:30;;;;;;;6.38;2.20;;;3.20;74.00;;;;;;5002696;28;20027;-95
2021/01/14 10:53:04;;;;;;;4.75;1.73;;;3.30;73.80;;;;;;4987023;28;20038;-95
2021/01/14 10:55:30;;;;;;;6.28;2.75;;;3.30;73.70;;;;;;4981183;28;20033;-92
2021/01/14 10:57:59;;;;;;;5.38;2.05;;;3.20;73.30;;;;;;4986189;28;20061;-92
2021/01/14 11:00:37;;;;;;;6.18;2.63;;;3.20;73.50;;;;;;4988993;28;20030;-96
2021/01/14 11:03:12;;;;;;;5.72;2.20;;;3.20;73.50;;;;;;4988505;28;20026;-96
2021/01/14 11:05:51;;;;;;;5.75;2.60;;;3.10;73.50;;;;;;4978731;28;20535;-91
2021/01/14 11:08:37;;;;;;;4.82;2.13;;;3.10;73.50;;;;;;4976011;28;20030;-91
2021/01/14 11:11:18;;;;;;;4.20;2.10;;;3.10;73.60;;;;;;4994392;28;20038;-93
2021/01/14 11:13:49;;;;;;;4.28;2.25;;;3.10;73.70;;;;;;4996330;28;20034;-90
2021/01/14 11:16:17;;;;;;;5.53;2.30;;;3.10;73.50;;;;;;4980230;28;20030;-93
2021/01/14 11:19:03;;;;;;;3.30;1.98;;;3.10;73.60;;;;;;4979957;28;20480;-93
2021/01/14 11:21:37;;;;;;;4.50;2.20;;;3.20;73.60;;;;;;4990454;28;20022;-93
2021/01/14 11:24:07;;;;;;;4.72;1.98;;;3.20;73.60;;;;;;4985671;28;20030;-96
2021/01/14 11:27:21;;;;;;;4.43;2.30;;;3.20;73.60;;;;;;4992822;28;20049;-93
2021/01/14 11:29:47;;;;;;;5.72;2.72;;;3.10;73.40;;;;;;4999186;28;20033;-91
2021/01/14 11:32:12;;;;;;;3.80;2.08;;;3.10;73.40;;;;;;5012123;28;20105;-93
2021/01/14 11:34:38;;;;;;;6.13;2.60;;;3.10;73.70;;;;;;5001283;28;20047;-93
2021/01/14 11:37:06;;;;;;;6.55;2.40;;;3.10;73.50;;;;;;5018080;28;20096;-93
2021/01/14 11:39:34;;;;;;;3.60;1.75;;;3.00;73.60;;;;;;5016732;28;20018;-92
2021/01/14 11:42:05;;;;;;;4.55;2.75;;;3.10;73.80;;;;;;5020841;28;20056;-95
2021/01/14 11:44:31;;;;;;;4.53;2.35;;;3.20;73.60;;;;;;5017745;28;20011;-91
2021/01/14 11:46:57;;;;;;;4.40;2.03;;;3.20;73.40;;;;;;5005042;28;20045;-92
2021/01/14 11:49:23;;;;;;;4.15;1.77;;;3.10;73.50;;;;;;5021364;28;20029;-91
2021/01/14 11:51:50;;;;;;;5.38;2.30;;;3.20;73.70;;;;;;5000159;28;20029;-91
2021/01/14 11:54:16;;;;;;;3.55;2.00;;;3.20;73.60;;;;;;5002211;28;20018;-92
2021/01/14 11:56:43;;;;;;;6.55;2.20;;;3.20;73.70;;;;;;5018046;28;20059;-92
2021/01/14 11:59:09;;;;;;;5.68;2.47;;;3.20;73.70;;;;;;5009300;28;20072;-89
2021/01/14 12:01:35;;;;;;;6.28;2.17;;;3.30;73.80;;;;;;5007880;28;20030;-85
2021/01/14 12:04:01;;;;;;;3.88;2.50;;;3.40;73.80;;;;;;5002044;28;20031;-88
2021/01/14 12:06:26;;;;;;;3.28;1.80;;;3.40;73.80;;;;;;5003306;28;20022;-86
2021/01/14 12:08:52;;;;;;;2.92;1.73;;;3.40;73.70;;;;;;5004873;28;20084;-89
2021/01/14 12:11:18;;;;;;;3.97;2.15;;;3.50;73.60;;;;;;4998809;28;20072;-86
2021/01/14 12:13:43;;;;;;;6.15;2.45;;;3.50;73.50;;;;;;4998676;28;20022;-86
2021/01/14 12:16:10;;;;;;;3.15;2.20;;;3.50;73.30;;;;;;4994908;28;20014;-87
2021/01/14 12:18:36;;;;;;;3.17;1.73;;;3.60;73.40;;;;;;4998192;28;20429;-86
2021/01/14 12:21:01;;;;;;;5.50;3.17;;;3.60;73.20;;;;;;4991321;28;20030;-84
2021/01/14 12:23:27;;;;;;;6.22;2.30;;;3.70;72.60;;;;;;4983452;28;20046;-85
2021/01/14 12:25:52;;;;;;;6.40;2.63;;;4.00;72.60;;;;;;4997879;28;20384;-86
2021/01/14 12:28:18;;;;;;;4.35;2.50;;;4.20;71.40;;;;;;4999365;28;20090;-86
2021/01/14 12:30:43;;;;;;;5.18;2.80;;;4.10;71.00;;;;;;4997311;28;21109;-85
2021/01/14 12:33:09;;;;;;;3.58;2.17;;;4.00;70.80;;;;;;4988313;28;20043;-86
2021/01/14 12:35:34;;;;;;;4.47;2.10;;;3.90;71.10;;;;;;4998764;28;20026;-88
2021/01/14 12:38:00;;;;;;;3.55;2.30;;;3.90;71.30;;;;;;5002045;28;20044;-85
2021/01/14 12:40:26;;;;;;;4.63;2.15;;;3.80;70.90;;;;;;4999489;28;20078;-88
2021/01/14 12:42:52;;;;;;;4.13;2.20;;;3.90;71.30;;;;;;5004008;28;20034;-87
2021/01/14 12:45:19;;;;;;;4.03;2.05;;;3.80;71.30;;;;;;4995294;28;20096;-88
2021/01/14 12:47:47;;;;;;;4.25;2.50;;;3.80;71.40;;;;;;4990884;28;20033;-86
2021/01/14 12:50:15;;;;;;;5.28;2.30;;;3.80;71.40;;;;;;5015805;28;20015;-86
2021/01/14 12:52:41;;;;;;;4.70;2.58;;;3.80;71.50;;;;;;4996480;28;20096;-85
2021/01/14 12:55:07;;;;;;;5.13;2.83;;;3.70;71.90;;;;;;5001755;28;20637;-85
2021/01/14 12:57:33;;;;;;;3.83;2.30;;;3.70;71.00;;;;;;4970632;28;20047;-87
2021/01/14 12:59:58;;;;;;;5.13;2.50;;;3.60;70.20;;;;;;5012633;28;20026;-88
2021/01/14 13:02:24;;;;;;;3.42;2.22;;;3.50;70.10;;;;;;5004837;28;20022;-87
2021/01/14 13:04:51;;;;;;;2.95;2.25;;;3.50;69.80;;;;;;5009694;28;20030;-85
2021/01/14 13:07:17;;;;;;;4.38;2.50;;;3.50;69.60;;;;;;5003945;28;20054;-86
2021/01/14 13:09:43;;;;;;;3.30;2.05;;;3.60;69.00;;;;;;4980259;28;20035;-89
2021/01/14 13:12:09;;;;;;;4.47;2.20;;;3.90;69.20;;;;;;4960416;28;20038;-83
2021/01/14 13:14:34;;;;;;;3.63;2.20;;;4.30;68.90;;;;;;4977299;28;20026;-84
2021/01/14 13:17:00;;;;;;;3.88;2.17;;;4.40;67.00;;;;;;4979027;28;20485;-85
2021/01/14 13:19:26;;;;;;;4.97;2.20;;;4.10;67.20;;;;;;5002610;28;20475;-86